YBCV

Details ICAO YBCV (CTL)
Name Charleville
Region Australia
Timezone Australia/Brisbane (UTC+10.0)
Plans Departing 5
Arriving 12
Stats Elevation 1,003 ft / 306 m (AMSL)
Location -26.415259° 146.262339°
Runways 2
Magnetic Variation 8.723° E
Sunrise 2017-12-12 19:17:14 UTC / 2017-12-13 05:17:14 Local
Sunset 2017-12-13 09:03:32 UTC / 2017-12-13 19:03:32 Local
Advertisement - Login to hide

Runways

ID Width Length Bearing (true) Bearing (mag) Surface Threshold Offset Overrun Length
12 98 ft / 30 m 5,010 ft / 1,527 m 137.17° 128.45° Asphalt 0 ft / 0 m 492 ft / 150 m
18 75 ft / 23 m 3,512 ft / 1,071 m 181.96° 173.24° Asphalt 0 ft / 0 m 1,683 ft / 513 m
30 98 ft / 30 m 5,010 ft / 1,527 m 317.17° 308.45° Asphalt 0 ft / 0 m 600 ft / 183 m
36 75 ft / 23 m 3,512 ft / 1,071 m 1.96° 353.24° Asphalt 0 ft / 0 m 207 ft / 63 m

Map

Weather


0- 5 10 15 20 25 30 35+ Temperature / ° C

Clouds and Precipitation
Forecast for 2017-12-13 06:00 UTC. Updated 7 minutes ago

Ground ~20,000 ft ~40,000 ft Winds

METAR

YBCV 130100Z AUTO 01009KT 9999 // NCD 33/06 Q1014

TAF

Not found

Frequencies

Unicom 126.70 MHz CTAF
Warning: Do not use this data for real-world aviation or navigation. No guarantee of current accuracy is given.